| time (UTC) | temp C | wind direction | speed KPH | gust KPH | rain 1hr cm | rain 24hr cm | rain mn cm | humidity % | barometer mb |
| 20260505171524 | 25 | 5 | 3.2 | 19.3 | 0.00 | 0.00 | 0.00 | 46 | 1008.6 |
| 20260505171018 | 25 | 5 | 8.0 | 19.3 | 0.00 | 0.00 | 0.00 | 45 | 1008.7 |
| 20260505170513 | 25 | 5 | 3.2 | 14.5 | 0.00 | 0.00 | 0.00 | 47 | 1008.8 |
| 20260505170006 | 25 | 5 | 4.8 | 17.7 | 0.00 | 0.00 | 0.00 | 45 | 1008.8 |
| 20260505165506 | 25 | 5 | 3.2 | 22.5 | 0.00 | 0.00 | 0.00 | 46 | 1008.9 |
| 20260505165102 | 25 | 5 | 6.4 | 22.5 | 0.00 | 0.00 | 0.00 | 45 | 1008.9 |
| 20260505164606 | 25 | 5 | 1.6 | 17.7 | 0.00 | 0.00 | 0.00 | 48 | 1009.0 |
| 20260505164052 | 25 | 5 | 4.8 | 17.7 | 0.00 | 0.00 | 0.00 | 46 | 1009.1 |
| 20260505163553 | 25 | 5 | 1.6 | 11.3 | 0.00 | 0.00 | 0.00 | 49 | 1009.2 |
| 20260505163048 | 25 | 5 | 3.2 | 12.9 | 0.00 | 0.00 | 0.00 | 49 | 1009.4 |
| 20260505162555 | 25 | 5 | 4.8 | 12.9 | 0.00 | 0.00 | 0.00 | 51 | 1009.4 |
| 20260505162044 | 25 | 5 | 1.6 | 8.0 | 0.00 | 0.00 | 0.00 | 50 | 1009.4 |
| 20260505161546 | 25 | 5 | 0.0 | 8.0 | 0.00 | 0.00 | 0.00 | 53 | 1009.4 |
| 20260505161034 | 25 | 5 | 1.6 | 11.3 | 0.00 | 0.00 | 0.00 | 51 | 1009.5 |
| 20260505160539 | 24 | 5 | 3.2 | 14.5 | 0.00 | 0.00 | 0.00 | 51 | 1009.4 |
| 20260505153102 | 23 | 5 | 1.6 | 20.9 | 0.00 | 0.00 | 0.00 | 54 | 1009.9 |
| 20260505152553 | 23 | 5 | 3.2 | 14.5 | 0.00 | 0.00 | 0.00 | 53 | 1010.0 |
| 20260505152501 | 23 | 5 | 3.2 | 14.5 | 0.00 | 0.00 | 0.00 | 52 | 1010.0 |
| 20260505152050 | 23 | 5 | 3.2 | 11.3 | 0.00 | 0.00 | 0.00 | 54 | 1010.0 |
| 20260505151542 | 23 | 5 | 1.6 | 11.3 | 0.00 | 0.00 | 0.00 | 54 | 1010.0 |
| 20260505151040 | 22 | 5 | 1.6 | 12.9 | 0.00 | 0.00 | 0.00 | 54 | 1010.0 |
| 20260505150534 | 22 | 5 | 3.2 | 12.9 | 0.00 | 0.00 | 0.00 | 52 | 1010.2 |
| 20260505140546 | 20 | 5 | 0.0 | 12.9 | 0.00 | 0.00 | 0.00 | 62 | 1010.7 |
| 20260505124552 | 15 | 5 | 0.0 | 6.4 | 0.00 | 0.00 | 0.00 | 67 | 1011.1 |
| 20260505124051 | 15 | 5 | 0.0 | 3.2 | 0.00 | 0.00 | 0.00 | 68 | 1011.0 |
| 20260505123538 | 14 | 5 | 0.0 | 1.6 | 0.00 | 0.00 | 0.00 | 68 | 1010.9 |
| 20260505123038 | 13 | 5 | 0.0 | 1.6 | 0.00 | 0.00 | 0.00 | 70 | 1010.9 |
| 20260505122531 | 13 | 5 | 0.0 | 0.0 | 0.00 | 0.00 | 0.00 | 70 | 1010.7 |
| 20260505122030 | 13 | 5 | 0.0 | 0.0 | 0.00 | 0.00 | 0.00 | 71 | 1010.8 |
| 20260505121533 | 12 | 5 | 0.0 | 0.0 | 0.00 | 0.00 | 0.00 | 72 | 1010.8 |
| 20260505121022 | 12 | 5 | 0.0 | 0.0 | 0.00 | 0.00 | 0.00 | 72 | 1010.9 |
| 20260505120514 | 12 | 5 | 0.0 | 0.0 | 0.00 | 0.00 | 0.00 | 74 | 1010.9 |
| 20260505120014 | 12 | 5 | 0.0 | 0.0 | 0.00 | 0.00 | 0.00 | 75 | 1010.8 |
| 20260505115504 | 11 | 5 | 0.0 | 1.6 | 0.00 | 0.00 | 0.00 | 75 | 1010.8 |
| 20260505115008 | 11 | 5 | 0.0 | 1.6 | 0.00 | 0.00 | 0.00 | 75 | 1010.8 |
| 20260505114503 | 11 | 5 | 0.0 | 0.0 | 0.00 | 0.00 | 0.00 | 75 | 1010.9 |
| 20260505114005 | 11 | 5 | 0.0 | 3.2 | 0.00 | 0.00 | 0.00 | 75 | 1011.0 |
| 20260505113557 | 11 | 5 | 0.0 | 3.2 | 0.00 | 0.00 | 0.00 | 75 | 1011.0 |
| 20260505113116 | 10 | 5 | 0.0 | 0.0 | 0.00 | 0.00 | 0.00 | 75 | 1010.8 |
| 20260505112552 | 10 | 5 | 0.0 | 0.0 | 0.00 | 0.00 | 0.00 | 75 | 1010.7 |
| 20260505112054 | 10 | 5 | 0.0 | 0.0 | 0.00 | 0.00 | 0.00 | 75 | 1010.7 |
| 20260505111544 | 10 | 5 | 0.0 | 0.0 | 0.00 | 0.00 | 0.00 | 75 | 1010.6 |
| 20260505111045 | 10 | 5 | 0.0 | 0.0 | 0.00 | 0.00 | 0.00 | 75 | 1010.5 |
| 20260505110535 | 10 | 5 | 0.0 | 0.0 | 0.00 | 0.00 | 0.00 | 75 | 1010.4 |
| 20260505102012 | 9 | 5 | 0.0 | 0.0 | 0.00 | 0.00 | 0.00 | 74 | 1010.4 |
| 20260505101504 | 9 | 5 | 0.0 | 0.0 | 0.00 | 0.00 | 0.00 | 74 | 1010.4 |
| 20260505101003 | 9 | 5 | 0.0 | 0.0 | 0.00 | 0.00 | 0.00 | 74 | 1010.3 |
| 20260505100601 | 9 | 5 | 0.0 | 0.0 | 0.00 | 0.00 | 0.00 | 74 | 1010.4 |
| 20260505095552 | 9 | 5 | 0.0 | 0.0 | 0.00 | 0.00 | 0.00 | 74 | 1010.3 |
| 20260505095053 | 10 | 5 | 0.0 | 0.0 | 0.00 | 0.00 | 0.00 | 74 | 1010.2 |
| 20260505094540 | 10 | 5 | 0.0 | 0.0 | 0.00 | 0.00 | 0.00 | 74 | 1010.1 |
| 20260505094044 | 10 | 5 | 0.0 | 0.0 | 0.00 | 0.00 | 0.00 | 74 | 1010.1 |
| 20260505093530 | 10 | 5 | 0.0 | 0.0 | 0.00 | 0.00 | 0.00 | 74 | 1010.0 |
| 20260505093036 | 10 | 5 | 0.0 | 0.0 | 0.00 | 0.00 | 0.00 | 74 | 1010.0 |
| 20260505092528 | 10 | 5 | 0.0 | 0.0 | 0.00 | 0.00 | 0.00 | 73 | 1010.0 |
| 20260505092032 | 10 | 5 | 0.0 | 3.2 | 0.00 | 0.00 | 0.00 | 74 | 1009.8 |
| 20260505091518 | 10 | 5 | 0.0 | 3.2 | 0.00 | 0.00 | 0.00 | 74 | 1009.9 |
| 20260505091021 | 10 | 5 | 0.0 | 3.2 | 0.00 | 0.00 | 0.00 | 73 | 1010.0 |
| 20260505090510 | 10 | 5 | 0.0 | 3.2 | 0.00 | 0.00 | 0.00 | 73 | 1010.0 |
| 20260505090026 | 10 | 5 | 0.0 | 3.2 | 0.00 | 0.00 | 0.00 | 73 | 1010.0 |
| 20260505085504 | 10 | 5 | 0.0 | 3.2 | 0.00 | 0.00 | 0.00 | 73 | 1010.1 |
| 20260505085056 | 10 | 5 | 0.0 | 0.0 | 0.00 | 0.00 | 0.00 | 73 | 1010.1 |
| 20260505085006 | 10 | 5 | 0.0 | 0.0 | 0.00 | 0.00 | 0.00 | 73 | 1010.1 |
| 20260505084557 | 10 | 5 | 0.0 | 0.0 | 0.00 | 0.00 | 0.00 | 73 | 1010.2 |
| 20260505084051 | 10 | 5 | 0.0 | 0.0 | 0.00 | 0.00 | 0.00 | 72 | 1010.4 |
| 20260505084002 | 10 | 5 | 0.0 | 0.0 | 0.00 | 0.00 | 0.00 | 72 | 1010.4 |
| 20260505083558 | 10 | 5 | 0.0 | 1.6 | 0.00 | 0.00 | 0.00 | 72 | 1010.4 |
| 20260505083102 | 10 | 5 | 0.0 | 1.6 | 0.00 | 0.00 | 0.00 | 72 | 1010.5 |
| 20260505083006 | 10 | 5 | 0.0 | 1.6 | 0.00 | 0.00 | 0.00 | 72 | 1010.5 |
| 20260505082554 | 10 | 5 | 0.0 | 0.0 | 0.00 | 0.00 | 0.00 | 71 | 1010.4 |
| 20260505082050 | 10 | 5 | 0.0 | 0.0 | 0.00 | 0.00 | 0.00 | 71 | 1010.5 |
| 20260505081558 | 10 | 5 | 0.0 | 0.0 | 0.00 | 0.00 | 0.00 | 71 | 1010.5 |
| 20260505081047 | 10 | 5 | 0.0 | 0.0 | 0.00 | 0.00 | 0.00 | 70 | 1010.3 |
| 20260505080550 | 10 | 5 | 0.0 | 0.0 | 0.00 | 0.00 | 0.00 | 70 | 1010.1 |
| 20260505080044 | 10 | 5 | 0.0 | 0.0 | 0.00 | 0.00 | 0.00 | 70 | 1010.3 |
| 20260505075538 | 10 | 5 | 0.0 | 3.2 | 0.00 | 0.00 | 0.00 | 70 | 1010.3 |
| 20260505075026 | 10 | 5 | 0.0 | 3.2 | 0.00 | 0.00 | 0.00 | 70 | 1010.1 |
| 20260505074528 | 10 | 5 | 0.0 | 0.0 | 0.00 | 0.00 | 0.00 | 70 | 1009.9 |
| 20260505074018 | 10 | 5 | 0.0 | 0.0 | 0.00 | 0.00 | 0.00 | 69 | 1009.7 |
| 20260505073521 | 10 | 5 | 0.0 | 0.0 | 0.00 | 0.00 | 0.00 | 70 | 1009.8 |
| 20260505073023 | 10 | 5 | 0.0 | 0.0 | 0.00 | 0.00 | 0.00 | 70 | 1009.7 |
| 20260505072522 | 10 | 5 | 0.0 | 0.0 | 0.00 | 0.00 | 0.00 | 70 | 1009.8 |
| 20260505072013 | 9 | 5 | 0.0 | 0.0 | 0.00 | 0.00 | 0.00 | 70 | 1009.9 |
| 20260505071510 | 9 | 5 | 0.0 | 0.0 | 0.00 | 0.00 | 0.00 | 70 | 1009.8 |
| 20260505071002 | 9 | 5 | 0.0 | 0.0 | 0.00 | 0.00 | 0.00 | 70 | 1009.9 |
| 20260505070502 | 9 | 5 | 0.0 | 0.0 | 0.00 | 0.00 | 0.00 | 70 | 1009.9 |
| 20260505070054 | 9 | 5 | 0.0 | 0.0 | 0.00 | 0.00 | 0.00 | 70 | 1009.9 |
| 20260505065558 | 9 | 5 | 0.0 | 0.0 | 0.00 | 0.00 | 0.00 | 70 | 1010.0 |
| 20260505065101 | 9 | 5 | 0.0 | 0.0 | 0.00 | 0.00 | 0.00 | 70 | 1009.9 |
| 20260505065003 | 9 | 5 | 0.0 | 0.0 | 0.00 | 0.00 | 0.00 | 70 | 1009.9 |
| 20260505064504 | 9 | 5 | 0.0 | 0.0 | 0.00 | 0.00 | 0.00 | 69 | 1009.9 |
| 20260505064056 | 9 | 5 | 0.0 | 0.0 | 0.00 | 0.00 | 0.00 | 69 | 1009.9 |
| 20260505063556 | 9 | 5 | 0.0 | 0.0 | 0.00 | 0.00 | 0.00 | 69 | 1009.9 |
| 20260505063046 | 9 | 5 | 0.0 | 0.0 | 0.00 | 0.00 | 0.00 | 69 | 1009.9 |
| 20260505062546 | 9 | 5 | 0.0 | 0.0 | 0.00 | 0.00 | 0.00 | 69 | 1009.9 |
| 20260505062045 | 9 | 5 | 0.0 | 0.0 | 0.00 | 0.00 | 0.00 | 69 | 1009.9 |
| 20260505061542 | 9 | 5 | 0.0 | 0.0 | 0.00 | 0.00 | 0.00 | 69 | 1010.0 |
| 20260505061032 | 9 | 5 | 0.0 | 0.0 | 0.00 | 0.00 | 0.00 | 69 | 1010.0 |
| 20260505060538 | 8 | 5 | 0.0 | 0.0 | 0.00 | 0.00 | 0.00 | 69 | 1010.0 |
| 20260505060034 | 8 | 5 | 0.0 | 0.0 | 0.00 | 0.00 | 0.00 | 69 | 1010.1 |
| 20260505055520 | 8 | 5 | 0.0 | 0.0 | 0.00 | 0.00 | 0.00 | 69 | 1010.1 |
| 20260505055017 | 8 | 5 | 0.0 | 0.0 | 0.00 | 0.00 | 0.00 | 69 | 1010.1 |
| 20260505054517 | 8 | 5 | 0.0 | 0.0 | 0.00 | 0.00 | 0.00 | 69 | 1010.1 |
| 20260505054007 | 8 | 5 | 0.0 | 0.0 | 0.00 | 0.00 | 0.00 | 69 | 1010.0 |
| 20260505053514 | 9 | 5 | 0.0 | 0.0 | 0.00 | 0.00 | 0.00 | 69 | 1010.1 |
| 20260505053002 | 9 | 5 | 0.0 | 0.0 | 0.00 | 0.00 | 0.00 | 69 | 1010.0 |
| 20260505052502 | 9 | 5 | 0.0 | 0.0 | 0.00 | 0.00 | 0.00 | 69 | 1010.1 |
| 20260505052054 | 9 | 5 | 0.0 | 0.0 | 0.00 | 0.00 | 0.00 | 69 | 1010.0 |
| 20260505051555 | 9 | 5 | 0.0 | 0.0 | 0.00 | 0.00 | 0.00 | 69 | 1010.0 |
| 20260505051047 | 10 | 5 | 0.0 | 0.0 | 0.00 | 0.00 | 0.00 | 69 | 1010.0 |
| 20260505050544 | 10 | 5 | 0.0 | 0.0 | 0.00 | 0.00 | 0.00 | 69 | 1010.0 |
| 20260505041558 | 10 | 5 | 0.0 | 1.6 | 0.00 | 0.00 | 0.00 | 68 | 1009.8 |
| 20260505041050 | 10 | 5 | 0.0 | 0.0 | 0.00 | 0.00 | 0.00 | 67 | 1009.8 |
| 20260505040551 | 11 | 5 | 0.0 | 0.0 | 0.00 | 0.00 | 0.00 | 67 | 1009.8 |
| 20260505040054 | 11 | 5 | 0.0 | 0.0 | 0.00 | 0.00 | 0.00 | 67 | 1009.8 |
| 20260505035541 | 11 | 5 | 0.0 | 0.0 | 0.00 | 0.00 | 0.00 | 67 | 1009.9 |
| 20260505035030 | 11 | 5 | 0.0 | 0.0 | 0.00 | 0.00 | 0.00 | 67 | 1009.7 |
| 20260505034529 | 11 | 5 | 0.0 | 0.0 | 0.00 | 0.00 | 0.00 | 67 | 1009.7 |
| 20260505034021 | 11 | 5 | 0.0 | 0.0 | 0.00 | 0.00 | 0.00 | 66 | 1009.7 |
| 20260505033520 | 11 | 5 | 0.0 | 0.0 | 0.00 | 0.00 | 0.00 | 66 | 1009.6 |
| 20260505033015 | 12 | 5 | 0.0 | 0.0 | 0.00 | 0.00 | 0.00 | 66 | 1009.6 |
| 20260505032510 | 12 | 5 | 0.0 | 0.0 | 0.00 | 0.00 | 0.00 | 66 | 1009.7 |
| 20260505032004 | 12 | 5 | 0.0 | 0.0 | 0.00 | 0.00 | 0.00 | 65 | 1009.7 |
| 20260505031611 | 12 | 5 | 0.0 | 0.0 | 0.00 | 0.00 | 0.00 | 65 | 1009.8 |
| 20260505031057 | 13 | 5 | 0.0 | 0.0 | 0.00 | 0.00 | 0.00 | 65 | 1009.7 |
| 20260505030552 | 13 | 5 | 0.0 | 0.0 | 0.00 | 0.00 | 0.00 | 64 | 1009.8 |
| 20260505030046 | 13 | 5 | 0.0 | 0.0 | 0.00 | 0.00 | 0.00 | 63 | 1009.8 |
| 20260505025543 | 13 | 5 | 0.0 | 0.0 | 0.00 | 0.00 | 0.00 | 62 | 1009.8 |
| 20260505025036 | 13 | 5 | 0.0 | 1.6 | 0.00 | 0.00 | 0.00 | 62 | 1010.0 |
| 20260505024545 | 14 | 5 | 0.0 | 1.6 | 0.00 | 0.00 | 0.00 | 61 | 1010.0 |
| 20260505024027 | 14 | 5 | 0.0 | 0.0 | 0.00 | 0.00 | 0.00 | 61 | 1009.9 |
| 20260505023528 | 15 | 5 | 0.0 | 0.0 | 0.00 | 0.00 | 0.00 | 60 | 1009.9 |
| 20260505023033 | 15 | 5 | 0.0 | 0.0 | 0.00 | 0.00 | 0.00 | 59 | 1009.9 |
| 20260505022520 | 15 | 5 | 0.0 | 0.0 | 0.00 | 0.00 | 0.00 | 57 | 1009.9 |
| 20260505022012 | 15 | 5 | 0.0 | 0.0 | 0.00 | 0.00 | 0.00 | 56 | 1010.0 |
| 20260505021515 | 15 | 5 | 0.0 | 0.0 | 0.00 | 0.00 | 0.00 | 57 | 1010.0 |
| 20260505021008 | 16 | 5 | 0.0 | 0.0 | 0.00 | 0.00 | 0.00 | 56 | 1010.0 |
| 20260505020504 | 16 | 5 | 0.0 | 0.0 | 0.00 | 0.00 | 0.00 | 55 | 1010.1 |
| 20260505020104 | 16 | 5 | 0.0 | 1.6 | 0.00 | 0.00 | 0.00 | 55 | 1010.1 |
| 20260505015603 | 16 | 5 | 0.0 | 1.6 | 0.00 | 0.00 | 0.00 | 55 | 1010.1 |
| 20260505015055 | 16 | 5 | 0.0 | 0.0 | 0.00 | 0.00 | 0.00 | 55 | 1010.1 |
| 20260505014603 | 16 | 5 | 0.0 | 1.6 | 0.00 | 0.00 | 0.00 | 55 | 1010.1 |
| 20260505014046 | 16 | 5 | 0.0 | 0.0 | 0.00 | 0.00 | 0.00 | 56 | 1010.0 |
| 20260505013546 | 16 | 5 | 0.0 | 0.0 | 0.00 | 0.00 | 0.00 | 56 | 1010.0 |
| 20260505013042 | 16 | 5 | 0.0 | 0.0 | 0.00 | 0.00 | 0.00 | 55 | 1009.9 |
| 20260505012538 | 16 | 5 | 0.0 | 0.0 | 0.00 | 0.00 | 0.00 | 53 | 1009.9 |
| 20260505012033 | 16 | 5 | 0.0 | 0.0 | 0.00 | 0.00 | 0.00 | 53 | 1009.9 |
| 20260505011531 | 16 | 5 | 0.0 | 0.0 | 0.00 | 0.00 | 0.00 | 53 | 1009.8 |
| 20260505011032 | 16 | 5 | 0.0 | 0.0 | 0.00 | 0.00 | 0.00 | 52 | 1009.7 |
| 20260505010530 | 17 | 5 | 0.0 | 0.0 | 0.00 | 0.00 | 0.00 | 51 | 1009.6 |
| 20260505010022 | 17 | 5 | 0.0 | 0.0 | 0.00 | 0.00 | 0.00 | 51 | 1009.6 |
| 20260505005520 | 17 | 5 | 0.0 | 1.6 | 0.00 | 0.00 | 0.00 | 51 | 1009.6 |
| 20260505005008 | 17 | 5 | 0.0 | 1.6 | 0.00 | 0.00 | 0.00 | 50 | 1009.6 |
| 20260505004514 | 17 | 5 | 0.0 | 1.6 | 0.00 | 0.00 | 0.00 | 51 | 1009.6 |
| 20260505004102 | 17 | 5 | 0.0 | 3.2 | 0.00 | 0.00 | 0.00 | 50 | 1009.6 |
| 20260505003502 | 17 | 5 | 0.0 | 3.2 | 0.00 | 0.00 | 0.00 | 50 | 1009.5 |
| 20260505003054 | 17 | 5 | 0.0 | 4.8 | 0.00 | 0.00 | 0.00 | 49 | 1009.5 |
| 20260505002558 | 17 | 5 | 0.0 | 4.8 | 0.00 | 0.00 | 0.00 | 50 | 1009.4 |
| 20260505002044 | 17 | 5 | 0.0 | 3.2 | 0.00 | 0.00 | 0.00 | 50 | 1009.3 |
| 20260505001552 | 18 | 5 | 0.0 | 3.2 | 0.00 | 0.00 | 0.00 | 49 | 1009.3 |
| 20260505001046 | 18 | 5 | 0.0 | 1.6 | 0.00 | 0.00 | 0.00 | 48 | 1009.2 |
| 20260505000544 | 18 | 5 | 0.0 | 0.0 | 0.00 | 0.00 | 0.00 | 48 | 1009.2 |
| 20260505000036 | 18 | 5 | 0.0 | 6.4 | 0.00 | 0.00 | 0.00 | 47 | 1009.2 |
| 20260504235540 | 18 | 5 | 0.0 | 3.2 | 0.00 | 0.00 | 0.00 | 46 | 1009.1 |
| 20260504235034 | 18 | 5 | 0.0 | 4.8 | 0.00 | 0.00 | 0.00 | 47 | 1009.0 |
| 20260504234532 | 19 | 5 | 0.0 | 4.8 | 0.00 | 0.00 | 0.00 | 46 | 1008.9 |
| 20260504234032 | 19 | 5 | 0.0 | 8.0 | 0.00 | 0.00 | 0.00 | 46 | 1008.9 |
| 20260504233539 | 19 | 5 | 1.6 | 8.0 | 0.00 | 0.00 | 0.00 | 46 | 1008.9 |
| 20260504233028 | 20 | 5 | 0.0 | 8.0 | 0.00 | 0.00 | 0.00 | 45 | 1008.9 |
| 20260504232530 | 20 | 5 | 1.6 | 6.4 | 0.00 | 0.00 | 0.00 | 44 | 1008.8 |
| 20260504232018 | 20 | 5 | 0.0 | 8.0 | 0.00 | 0.00 | 0.00 | 43 | 1008.7 |
| 20260504231522 | 20 | 5 | 1.6 | 9.7 | 0.00 | 0.00 | 0.00 | 42 | 1008.7 |
| 20260504231012 | 20 | 5 | 1.6 | 9.7 | 0.00 | 0.00 | 0.00 | 42 | 1008.6 |
| 20260504230514 | 21 | 5 | 0.0 | 6.4 | 0.00 | 0.00 | 0.00 | 41 | 1008.5 |
| 20260504230006 | 21 | 5 | 1.6 | 6.4 | 0.00 | 0.00 | 0.00 | 42 | 1008.5 |
| 20260504225505 | 21 | 5 | 0.0 | 8.0 | 0.00 | 0.00 | 0.00 | 42 | 1008.5 |
| 20260504225105 | 21 | 5 | 0.0 | 8.0 | 0.00 | 0.00 | 0.00 | 40 | 1008.5 |
| 20260504224508 | 21 | 5 | 0.0 | 6.4 | 0.00 | 0.00 | 0.00 | 40 | 1008.5 |
| 20260504224004 | 21 | 5 | 0.0 | 4.8 | 0.00 | 0.00 | 0.00 | 40 | 1008.5 |
| 20260504223508 | 21 | 5 | 0.0 | 4.8 | 0.00 | 0.00 | 0.00 | 40 | 1008.5 |
| 20260504223102 | 21 | 5 | 0.0 | 9.7 | 0.00 | 0.00 | 0.00 | 40 | 1008.5 |
| 20260504222502 | 21 | 5 | 1.6 | 9.7 | 0.00 | 0.00 | 0.00 | 39 | 1008.6 |
| 20260504222055 | 21 | 5 | 1.6 | 9.7 | 0.00 | 0.00 | 0.00 | 40 | 1008.5 |
| 20260504221554 | 22 | 5 | 3.2 | 9.7 | 0.00 | 0.00 | 0.00 | 40 | 1008.6 |
| 20260504221044 | 22 | 5 | 0.0 | 9.7 | 0.00 | 0.00 | 0.00 | 41 | 1008.7 |
| 20260504220544 | 22 | 5 | 3.2 | 9.7 | 0.00 | 0.00 | 0.00 | 40 | 1008.7 |
| 20260504220038 | 22 | 5 | 1.6 | 12.9 | 0.00 | 0.00 | 0.00 | 42 | 1008.6 |
| 20260504215544 | 22 | 5 | 3.2 | 12.9 | 0.00 | 0.00 | 0.00 | 40 | 1008.7 |
| 20260504215039 | 22 | 5 | 0.0 | 14.5 | 0.00 | 0.00 | 0.00 | 40 | 1008.8 |
| 20260504214550 | 22 | 5 | 4.8 | 16.1 | 0.00 | 0.00 | 0.00 | 40 | 1008.8 |
| 20260504214039 | 22 | 5 | 3.2 | 16.1 | 0.00 | 0.00 | 0.00 | 40 | 1008.7 |
| 20260504213536 | 22 | 5 | 3.2 | 12.9 | 0.00 | 0.00 | 0.00 | 38 | 1008.7 |
| 20260504213038 | 22 | 5 | 3.2 | 9.7 | 0.00 | 0.00 | 0.00 | 40 | 1008.7 |
| 20260504212541 | 22 | 5 | 0.0 | 11.3 | 0.00 | 0.00 | 0.00 | 42 | 1008.7 |
| 20260504212034 | 22 | 5 | 0.0 | 11.3 | 0.00 | 0.00 | 0.00 | 41 | 1008.8 |
| 20260504211534 | 22 | 5 | 1.6 | 11.3 | 0.00 | 0.00 | 0.00 | 40 | 1008.9 |
| 20260504211024 | 22 | 5 | 1.6 | 11.3 | 0.00 | 0.00 | 0.00 | 40 | 1008.9 |
| 20260504210524 | 22 | 5 | 3.2 | 14.5 | 0.00 | 0.00 | 0.00 | 44 | 1008.9 |
| 20260504210031 | 21 | 5 | 3.2 | 14.5 | 0.00 | 0.00 | 0.00 | 40 | 1009.0 |
| 20260504205515 | 21 | 5 | 3.2 | 14.5 | 0.00 | 0.00 | 0.00 | 40 | 1009.0 |
| 20260504205010 | 21 | 5 | 3.2 | 16.1 | 0.00 | 0.00 | 0.00 | 40 | 1009.1 |
| 20260504204517 | 21 | 5 | 6.4 | 16.1 | 0.00 | 0.00 | 0.00 | 40 | 1009.1 |
| 20260504204005 | 21 | 5 | 1.6 | 12.9 | 0.00 | 0.00 | 0.00 | 40 | 1009.1 |
| 20260504203554 | 21 | 5 | 3.2 | 14.5 | 0.00 | 0.00 | 0.00 | 38 | 1009.3 |
| 20260504203502 | 21 | 5 | 3.2 | 14.5 | 0.00 | 0.00 | 0.00 | 40 | 1009.3 |
| 20260504203129 | 22 | 5 | 1.6 | 14.5 | 0.00 | 0.00 | 0.00 | 42 | 1009.4 |
| 20260504202548 | 22 | 5 | 6.4 | 14.5 | 0.00 | 0.00 | 0.00 | 41 | 1009.3 |
| 20260504202051 | 21 | 5 | 3.2 | 14.5 | 0.00 | 0.00 | 0.00 | 42 | 1009.4 |
| 20260504201539 | 21 | 5 | 1.6 | 9.7 | 0.00 | 0.00 | 0.00 | 43 | 1009.4 |
| 20260504201038 | 21 | 5 | 0.0 | 9.7 | 0.00 | 0.00 | 0.00 | 39 | 1009.4 |
| 20260504200532 | 22 | 5 | 1.6 | 11.3 | 0.00 | 0.00 | 0.00 | 41 | 1009.5 |
| 20260504200030 | 22 | 5 | 1.6 | 16.1 | 0.00 | 0.00 | 0.00 | 42 | 1009.5 |
| 20260504195526 | 22 | 5 | 3.2 | 16.1 | 0.00 | 0.00 | 0.00 | 38 | 1009.6 |
| 20260504195022 | 22 | 5 | 3.2 | 14.5 | 0.00 | 0.00 | 0.00 | 42 | 1009.6 |
| 20260504194514 | 21 | 5 | 4.8 | 22.5 | 0.00 | 0.00 | 0.00 | 40 | 1009.6 |
| 20260504194012 | 21 | 5 | 4.8 | 22.5 | 0.00 | 0.00 | 0.00 | 42 | 1009.7 |
| 20260504193502 | 22 | 5 | 1.6 | 12.9 | 0.00 | 0.00 | 0.00 | 43 | 1009.8 |
| 20260504193002 | 21 | 5 | 1.6 | 14.5 | 0.00 | 0.00 | 0.00 | 42 | 1009.9 |
| 20260504192602 | 21 | 5 | 3.2 | 19.3 | 0.00 | 0.00 | 0.00 | 43 | 1009.9 |
| 20260504192102 | 21 | 5 | 3.2 | 19.3 | 0.00 | 0.00 | 0.00 | 42 | 1009.9 |
| 20260504192002 | 21 | 5 | 3.2 | 12.9 | 0.00 | 0.00 | 0.00 | 43 | 1009.9 |
| 20260504191601 | 21 | 5 | 4.8 | 14.5 | 0.00 | 0.00 | 0.00 | 40 | 1009.9 |
| 20260504191100 | 21 | 5 | 3.2 | 14.5 | 0.00 | 0.00 | 0.00 | 41 | 1009.9 |
| 20260504191003 | 21 | 5 | 3.2 | 14.5 | 0.00 | 0.00 | 0.00 | 40 | 1009.9 |
| 20260504190558 | 21 | 5 | 3.2 | 12.9 | 0.00 | 0.00 | 0.00 | 39 | 1010.0 |
| 20260504190057 | 21 | 5 | 1.6 | 12.9 | 0.00 | 0.00 | 0.00 | 41 | 1010.0 |
| 20260504185548 | 21 | 5 | 3.2 | 14.5 | 0.00 | 0.00 | 0.00 | 44 | 1010.0 |
| 20260504185048 | 21 | 5 | 3.2 | 14.5 | 0.00 | 0.00 | 0.00 | 41 | 1010.2 |
| 20260504184542 | 21 | 5 | 4.8 | 12.9 | 0.00 | 0.00 | 0.00 | 44 | 1010.3 |
| 20260504184040 | 21 | 5 | 3.2 | 22.5 | 0.00 | 0.00 | 0.00 | 44 | 1010.4 |
| 20260504183531 | 21 | 5 | 6.4 | 22.5 | 0.00 | 0.00 | 0.00 | 42 | 1010.4 |
| 20260504183032 | 21 | 5 | 3.2 | 16.1 | 0.00 | 0.00 | 0.00 | 40 | 1010.5 |
| 20260504182522 | 21 | 5 | 6.4 | 16.1 | 0.00 | 0.00 | 0.00 | 43 | 1010.6 |
| 20260504182020 | 21 | 5 | 3.2 | 9.7 | 0.00 | 0.00 | 0.00 | 46 | 1010.7 |
| 20260504181512 | 20 | 5 | 1.6 | 14.5 | 0.00 | 0.00 | 0.00 | 43 | 1010.8 |
| 20260504181012 | 20 | 5 | 3.2 | 19.3 | 0.00 | 0.00 | 0.00 | 43 | 1010.8 |
| 20260504180505 | 20 | 5 | 1.6 | 11.3 | 0.00 | 0.00 | 0.00 | 41 | 1010.9 |
| 20260504180007 | 20 | 5 | 3.2 | 11.3 | 0.00 | 0.00 | 0.00 | 45 | 1010.9 |
| 20260504175558 | 20 | 5 | 3.2 | 17.7 | 0.00 | 0.00 | 0.00 | 42 | 1010.9 |
| 20260504175104 | 20 | 5 | 3.2 | 17.7 | 0.00 | 0.00 | 0.00 | 47 | 1011.0 |
| 20260504174552 | 20 | 5 | 4.8 | 16.1 | 0.00 | 0.00 | 0.00 | 44 | 1011.0 |
| 20260504174052 | 20 | 5 | 3.2 | 14.5 | 0.00 | 0.00 | 0.00 | 43 | 1011.1 |
| 20260504173545 | 20 | 5 | 1.6 | 14.5 | 0.00 | 0.00 | 0.00 | 43 | 1011.2 |
| 20260504173057 | 20 | 5 | 3.2 | 14.5 | 0.00 | 0.00 | 0.00 | 43 | 1011.3 |
| 20260504172536 | 20 | 5 | 1.6 | 9.7 | 0.00 | 0.00 | 0.00 | 43 | 1011.5 |
| 20260504172036 | 20 | 5 | 3.2 | 12.9 | 0.00 | 0.00 | 0.00 | 45 | 1011.6 |